createdAt,value
2023-05-01T00:16:06.128Z,48.53
2023-05-01T00:28:34.441Z,48.51
2023-05-01T00:29:35.453Z,47.39
2023-05-01T00:31:53.524Z,47.26
2023-05-01T00:34:12.738Z,47.37
2023-05-01T00:35:13.521Z,47.08
2023-05-01T00:37:31.657Z,47.33
2023-05-01T00:39:50.962Z,47.20
2023-05-01T00:40:52.641Z,47.03
2023-05-01T00:41:53.690Z,46.94
2023-05-01T00:44:10.254Z,47.60
2023-05-01T00:45:11.116Z,47.01
2023-05-01T00:47:29.293Z,47.07
2023-05-01T00:48:29.205Z,46.98
2023-05-01T00:50:48.713Z,47.00
2023-05-01T00:53:13.284Z,48.04
2023-05-01T00:55:32.396Z,47.12
2023-05-01T00:57:51.492Z,47.09
2023-05-01T01:00:10.516Z,48.02
2023-05-01T01:01:10.519Z,47.06
2023-05-01T01:03:29.701Z,47.62
2023-05-01T01:04:30.670Z,47.07
2023-05-01T01:07:58.765Z,48.21
2023-05-01T01:14:28.808Z,48.40
2023-05-01T01:15:28.829Z,47.26
2023-05-01T01:16:29.576Z,47.10
2023-05-01T01:17:29.699Z,46.99
2023-05-01T01:18:28.634Z,46.91
2023-05-01T01:20:47.936Z,47.11
2023-05-01T01:21:48.857Z,46.94
2023-05-01T01:24:07.032Z,47.13
2023-05-01T01:26:26.389Z,47.98
2023-05-01T01:27:27.076Z,46.99
2023-05-01T01:34:18.801Z,48.34
2023-05-01T01:46:14.679Z,48.42
2023-05-01T01:48:33.973Z,47.26
2023-05-01T01:54:50.970Z,48.39
2023-05-01T01:57:10.324Z,48.24
2023-05-01T02:07:31.914Z,48.46
2023-05-01T02:08:32.776Z,47.32
2023-05-01T02:19:13.653Z,48.43
2023-05-01T02:21:39.122Z,48.24
2023-05-01T02:33:27.810Z,48.47
2023-05-01T02:34:27.743Z,47.30
2023-05-01T02:37:40.285Z,48.26
2023-05-01T02:39:59.531Z,47.42
2023-05-01T02:47:50.248Z,48.39
2023-05-01T02:48:50.713Z,47.25
2023-05-01T02:51:38.044Z,48.17
2023-05-01T02:52:38.079Z,47.11
2023-05-01T02:54:57.354Z,47.23
2023-05-01T02:57:16.893Z,47.04
2023-05-01T02:59:35.769Z,46.99
2023-05-01T03:05:43.814Z,48.28
2023-05-01T03:06:44.999Z,47.14
2023-05-01T03:10:18.861Z,48.21
2023-05-01T03:11:19.707Z,47.11
2023-05-01T03:12:18.659Z,46.97
2023-05-01T03:14:38.011Z,47.00
2023-05-01T03:41:21.233Z,48.39
2023-05-01T03:43:40.576Z,47.14
2023-05-01T03:44:40.778Z,46.95
2023-05-01T03:45:44.100Z,46.84
2023-05-01T03:46:53.726Z,46.83
2023-05-01T03:49:37.684Z,48.01
2023-05-01T03:55:11.521Z,48.26
2023-05-01T03:57:30.927Z,47.08
2023-05-01T03:58:31.648Z,46.93
2023-05-01T03:59:31.402Z,46.83
2023-05-01T04:00:31.422Z,46.77
2023-05-01T04:10:13.594Z,48.29
2023-05-01T04:11:14.378Z,47.20
2023-05-01T04:12:13.614Z,47.02
2023-05-01T04:26:41.257Z,48.27
2023-05-01T04:27:41.381Z,47.13
2023-05-01T04:39:43.548Z,48.20
2023-05-01T04:42:02.856Z,47.34
2023-05-01T04:44:21.960Z,46.88
2023-05-01T04:46:41.310Z,47.11
2023-05-01T04:53:58.510Z,48.09
2023-05-01T04:54:59.868Z,46.98
2023-05-01T04:55:59.386Z,46.78
2023-05-01T04:58:17.664Z,46.73
2023-05-01T05:14:35.635Z,48.08
2023-05-01T05:15:36.866Z,46.92
2023-05-01T05:16:35.472Z,46.74
2023-05-01T05:17:36.566Z,46.60
2023-05-01T05:18:35.573Z,46.49
2023-05-01T05:19:35.661Z,46.43
2023-05-01T05:20:36.674Z,46.41
2023-05-01T05:21:36.568Z,46.41
2023-05-01T05:23:54.997Z,46.68
2023-05-01T05:24:54.745Z,46.42
2023-05-01T05:25:56.204Z,46.38
2023-05-01T05:28:14.202Z,46.56
2023-05-01T05:29:15.063Z,46.51
2023-05-01T05:30:15.107Z,46.47
2023-05-01T05:31:15.317Z,46.38
2023-05-01T05:32:14.104Z,46.43
2023-05-01T05:33:14.065Z,46.38
2023-05-01T05:34:14.022Z,46.40
2023-05-01T05:35:13.980Z,46.44
2023-05-01T05:36:15.095Z,46.39
2023-05-01T05:37:15.047Z,46.40
2023-05-01T05:39:33.522Z,46.60
2023-05-01T05:40:48.361Z,46.50
2023-05-01T05:41:34.540Z,46.57
2023-05-01T05:42:34.494Z,46.50
2023-05-01T05:43:34.208Z,46.44
2023-05-01T05:44:34.134Z,46.45
2023-05-01T05:46:52.421Z,46.60
2023-05-01T05:47:53.437Z,46.47
2023-05-01T05:48:54.900Z,46.39
2023-05-01T05:49:53.276Z,46.37
2023-05-01T05:50:53.228Z,46.37
2023-05-01T05:51:53.233Z,46.36
2023-05-01T05:52:53.274Z,46.31
2023-05-01T05:53:52.225Z,46.30
2023-05-01T05:54:53.219Z,46.30
2023-05-01T05:55:53.212Z,46.30
2023-05-01T05:56:53.212Z,46.30
2023-05-01T05:59:11.402Z,46.60
2023-05-01T06:00:12.580Z,46.42
2023-05-01T06:01:11.546Z,46.32
2023-05-01T06:02:12.438Z,46.24
2023-05-01T06:04:30.933Z,46.46
2023-05-01T06:05:31.843Z,46.38
2023-05-01T06:06:31.805Z,46.34
2023-05-01T06:07:31.698Z,46.26
2023-05-01T06:08:31.984Z,46.28
2023-05-01T06:10:49.802Z,46.35
2023-05-01T06:11:49.784Z,46.34
2023-05-01T06:12:58.778Z,46.30
2023-05-01T06:13:50.833Z,46.27
2023-05-01T06:16:09.029Z,46.73
2023-05-01T06:17:08.924Z,46.31
2023-05-01T06:18:10.048Z,46.27
2023-05-01T06:19:09.130Z,46.25
2023-05-01T06:20:08.957Z,46.11
2023-05-01T06:21:08.820Z,46.09
2023-05-01T06:22:09.830Z,46.07
2023-05-01T06:23:09.882Z,46.05
2023-05-01T06:24:09.829Z,45.99
2023-05-01T06:26:28.091Z,46.18
2023-05-01T06:27:29.150Z,46.07
2023-05-01T06:28:29.278Z,46.05
2023-05-01T06:29:29.015Z,45.99
2023-05-01T06:30:28.931Z,45.97
2023-05-01T06:31:28.937Z,45.97
2023-05-01T06:32:27.943Z,45.93
2023-05-01T06:33:28.966Z,45.93
2023-05-01T06:34:27.951Z,45.90
2023-05-01T06:35:28.897Z,45.92
2023-05-01T06:36:28.958Z,45.92
2023-05-01T06:37:28.964Z,45.92
2023-05-01T06:39:47.294Z,46.11
2023-05-01T06:42:06.378Z,46.12
2023-05-01T06:44:25.519Z,46.19
2023-05-01T06:45:26.789Z,46.05
2023-05-01T06:47:44.640Z,46.57
2023-05-01T06:48:45.584Z,46.12
2023-05-01T06:49:45.444Z,46.04
2023-05-01T06:50:45.470Z,45.99
2023-05-01T06:51:45.439Z,45.95
2023-05-01T06:52:45.421Z,45.93
2023-05-01T06:53:45.442Z,45.95
2023-05-01T06:54:45.479Z,45.89
2023-05-01T06:55:45.412Z,45.91
2023-05-01T06:56:44.432Z,45.89
2023-05-01T06:57:45.376Z,45.87
2023-05-01T06:58:44.406Z,45.87
2023-05-01T06:59:45.406Z,45.89
2023-05-01T07:00:45.424Z,45.86
2023-05-01T07:01:45.385Z,45.85
2023-05-01T07:44:04.424Z,47.52
2023-05-01T07:45:05.391Z,46.39
2023-05-01T07:47:23.466Z,46.76
2023-05-01T07:48:24.376Z,46.17
2023-05-01T07:49:23.405Z,46.06
2023-05-01T07:52:39.485Z,47.17
2023-05-01T07:53:40.321Z,46.14
2023-05-01T07:54:40.564Z,45.99
2023-05-01T07:55:39.236Z,45.94
2023-05-01T07:58:20.289Z,47.01
2023-05-01T07:59:21.187Z,46.00
2023-05-01T08:01:39.513Z,46.00
2023-05-01T08:02:39.517Z,45.88
2023-05-01T08:12:46.893Z,47.29
2023-05-01T08:15:05.794Z,46.18
2023-05-01T08:16:06.928Z,46.00
2023-05-01T08:17:06.697Z,45.94
2023-05-01T08:18:06.682Z,45.83
2023-05-01T08:19:06.617Z,45.75
2023-05-01T08:20:06.588Z,45.75
2023-05-01T08:21:05.575Z,45.70
2023-05-01T08:22:06.660Z,45.62
2023-05-01T08:23:06.568Z,45.62
2023-05-01T09:50:38.000Z,46.67
2023-05-01T10:12:47.148Z,46.53
2023-05-01T10:31:16.052Z,46.35
2023-05-01T10:32:17.003Z,45.22
2023-05-01T10:33:17.096Z,45.05
2023-05-01T10:34:16.274Z,44.93
2023-05-01T11:01:51.787Z,46.37
2023-05-01T11:02:51.083Z,45.27
2023-05-01T11:03:52.054Z,45.09
2023-05-01T11:04:51.745Z,44.99
2023-05-01T11:05:52.084Z,44.92
2023-05-01T11:06:52.096Z,44.84
2023-05-01T11:07:51.098Z,44.81
2023-05-01T11:08:51.215Z,44.77
2023-05-01T11:09:52.212Z,44.75
2023-05-01T11:10:52.239Z,44.74
2023-05-01T11:11:51.273Z,44.73
2023-05-01T11:12:51.318Z,44.70
2023-05-01T11:13:52.314Z,44.68
2023-05-01T11:14:52.347Z,44.69
2023-05-01T11:15:51.365Z,44.67
2023-05-01T11:16:51.394Z,44.67
2023-05-01T11:17:52.512Z,44.69
2023-05-01T11:18:52.385Z,44.69
2023-05-01T11:19:52.433Z,44.67
2023-05-01T11:20:52.375Z,44.66
2023-05-01T11:21:52.425Z,44.67
2023-05-01T11:22:52.417Z,44.63
2023-05-01T11:23:52.388Z,44.65
2023-05-01T11:24:52.471Z,44.65
2023-05-01T11:25:51.416Z,44.65
2023-05-01T11:26:52.437Z,44.63
2023-05-01T11:27:52.447Z,44.65
2023-05-01T11:28:52.434Z,44.65
2023-05-01T11:29:51.486Z,44.65
2023-05-01T11:30:51.427Z,44.62
2023-05-01T11:31:52.491Z,44.63
2023-05-01T11:32:51.612Z,44.63
2023-05-01T11:33:52.430Z,44.65
2023-05-01T11:34:52.427Z,44.66
2023-05-01T11:35:51.427Z,44.66
2023-05-01T11:36:52.517Z,44.67
2023-05-01T11:37:51.478Z,44.68
2023-05-01T11:38:52.473Z,44.69
2023-05-01T11:39:51.460Z,44.71
2023-05-01T11:40:52.443Z,44.68
2023-05-01T11:41:51.515Z,44.71
2023-05-01T11:42:51.434Z,44.71
2023-05-01T11:43:52.478Z,44.73
2023-05-01T11:44:51.442Z,44.75
2023-05-01T11:45:52.462Z,44.73
2023-05-01T11:46:51.480Z,44.73
2023-05-01T11:47:52.480Z,44.74
2023-05-01T11:48:51.459Z,44.76
2023-05-01T11:49:52.504Z,44.76
2023-05-01T11:50:52.548Z,44.77
2023-05-01T11:51:52.508Z,44.81
2023-05-01T11:52:52.509Z,44.79
2023-05-01T11:53:51.490Z,44.78
2023-05-01T11:54:52.521Z,44.77
2023-05-01T11:55:52.517Z,44.75
2023-05-01T11:56:52.632Z,44.83
2023-05-01T11:57:52.544Z,44.81
2023-05-01T11:58:51.517Z,44.81
2023-05-01T11:59:51.527Z,44.82
2023-05-01T12:00:52.555Z,44.80
2023-05-01T12:01:52.098Z,44.83
2023-05-01T12:02:53.027Z,44.84
2023-05-01T12:03:52.642Z,44.84
2023-05-01T12:04:52.850Z,44.85
2023-05-01T12:05:53.024Z,44.85
2023-05-01T12:06:52.723Z,44.86
2023-05-01T12:07:52.611Z,44.86
2023-05-01T12:08:52.663Z,44.85
2023-05-01T12:09:52.636Z,44.89
2023-05-01T12:10:52.737Z,44.85
2023-05-01T12:14:21.352Z,46.21
2023-05-01T12:15:21.046Z,45.24
2023-05-01T12:16:22.082Z,45.16
2023-05-01T12:17:21.471Z,45.09
2023-05-01T12:18:21.463Z,45.04
2023-05-01T12:19:22.465Z,45.03
2023-05-01T12:20:21.363Z,44.99
2023-05-01T12:21:21.451Z,45.00
2023-05-01T12:22:22.460Z,44.98
2023-05-01T12:23:22.459Z,44.97
2023-05-01T12:24:22.515Z,45.00
2023-05-01T12:25:21.534Z,44.98
2023-05-01T12:33:54.544Z,46.64
2023-05-01T12:34:55.598Z,45.58
2023-05-01T12:35:54.695Z,45.47
2023-05-01T12:36:55.591Z,45.33
2023-05-01T12:37:54.520Z,45.26
2023-05-01T12:40:54.126Z,46.46
2023-05-01T12:41:54.152Z,45.51
2023-05-01T12:42:55.543Z,45.39
2023-05-01T12:43:53.978Z,45.33
2023-05-01T12:44:55.026Z,45.28
2023-05-01T12:45:55.184Z,45.27
2023-05-01T12:49:23.112Z,46.53
2023-05-01T12:50:23.185Z,45.54
2023-05-01T12:51:23.095Z,45.44
2023-05-01T12:52:24.209Z,45.47
2023-05-01T12:53:24.292Z,45.32
2023-05-01T12:54:23.200Z,45.30
2023-05-01T12:55:24.227Z,45.42
2023-05-01T12:56:24.324Z,45.39
2023-05-01T12:57:24.331Z,45.32
2023-05-01T12:58:23.341Z,45.28
2023-05-01T13:00:55.344Z,46.45
2023-05-01T13:01:56.280Z,45.55
2023-05-01T13:02:56.396Z,45.46
2023-05-01T13:03:56.509Z,45.41
2023-05-01T13:04:56.387Z,45.37
2023-05-01T13:05:56.294Z,45.37
2023-05-01T13:06:55.376Z,45.42
2023-05-01T13:09:18.925Z,46.52
2023-05-01T13:10:19.993Z,45.60
2023-05-01T13:11:20.052Z,45.56
2023-05-01T13:12:20.050Z,45.50
2023-05-01T13:14:45.292Z,46.63
2023-05-01T13:15:46.272Z,45.67
2023-05-01T13:16:45.540Z,45.60
2023-05-01T13:26:33.035Z,47.22
2023-05-01T13:27:34.085Z,46.03
2023-05-01T13:28:34.151Z,45.92
2023-05-01T13:30:52.315Z,45.89
2023-05-01T13:35:42.136Z,47.15
2023-05-01T13:36:42.022Z,46.07
2023-05-01T13:37:43.138Z,45.97
2023-05-01T13:38:43.348Z,45.88
2023-05-01T13:39:43.047Z,45.81
2023-05-01T13:40:43.143Z,45.82
2023-05-01T13:41:43.142Z,45.81
2023-05-01T13:44:01.424Z,46.04
2023-05-01T13:50:49.028Z,47.42
2023-05-01T13:51:48.805Z,46.31
2023-05-01T13:54:59.201Z,47.31
2023-05-01T13:56:00.052Z,46.30
2023-05-01T13:57:00.033Z,46.18
2023-05-01T13:57:59.872Z,46.15
2023-05-01T13:58:58.946Z,46.08
2023-05-01T13:59:58.958Z,46.04
2023-05-01T14:01:00.032Z,46.03
2023-05-01T14:05:29.819Z,47.45
2023-05-01T14:06:30.757Z,46.41
2023-05-01T14:10:58.725Z,47.54
2023-05-01T14:13:17.875Z,46.45
2023-05-01T14:14:18.969Z,46.29
2023-05-01T14:27:26.419Z,47.88
2023-05-01T14:28:27.036Z,46.77
2023-05-01T14:29:27.317Z,46.58
2023-05-01T14:30:26.323Z,46.47
2023-05-01T14:39:14.305Z,47.93
2023-05-01T14:40:14.788Z,46.80
2023-05-01T14:41:14.874Z,46.65
2023-05-01T14:42:14.805Z,46.56
2023-05-01T14:45:23.716Z,47.73
2023-05-01T14:46:23.567Z,46.70
2023-05-01T14:47:23.657Z,46.58
2023-05-01T14:56:11.509Z,48.06
2023-05-01T14:57:12.627Z,46.96
2023-05-01T14:58:12.057Z,46.79
2023-05-01T14:59:12.513Z,46.67
2023-05-01T15:00:12.490Z,46.54
2023-05-01T15:01:12.532Z,46.50
2023-05-01T15:02:12.682Z,46.45
2023-05-01T15:03:11.763Z,46.44
2023-05-01T15:04:11.916Z,46.42
2023-05-01T15:05:11.737Z,46.43
2023-05-01T15:13:25.200Z,48.06
2023-05-01T15:28:09.641Z,48.24
2023-05-01T15:30:28.558Z,47.02
2023-05-01T15:31:28.668Z,46.85
2023-05-01T15:32:30.034Z,46.77
2023-05-01T15:33:29.563Z,46.64
2023-05-01T15:34:29.536Z,46.62
2023-05-01T15:35:28.514Z,46.57
2023-05-01T15:36:29.586Z,46.57
2023-05-01T15:37:28.502Z,46.55
2023-05-01T15:38:29.473Z,46.60
2023-05-01T15:39:29.512Z,46.48
2023-05-01T15:41:47.732Z,46.86
2023-05-01T15:42:48.665Z,46.61
2023-05-01T15:43:48.647Z,46.54
2023-05-01T15:46:32.366Z,47.73
2023-05-01T15:47:33.282Z,46.80
2023-05-01T15:48:33.263Z,46.69
2023-05-01T16:01:39.297Z,48.21
2023-05-01T16:02:40.349Z,47.11
2023-05-01T16:04:58.368Z,47.36
2023-05-01T16:05:59.343Z,46.91
2023-05-01T16:08:18.297Z,47.97
2023-05-01T16:09:18.289Z,46.99
2023-05-01T16:10:18.146Z,46.84
2023-05-01T16:11:19.125Z,46.72
2023-05-01T16:12:19.212Z,46.69
2023-05-01T16:13:18.189Z,46.71
2023-05-01T16:14:19.258Z,46.65
2023-05-01T16:15:18.348Z,46.65
2023-05-01T16:16:19.365Z,46.63
2023-05-01T16:17:19.468Z,46.64
2023-05-01T16:20:10.786Z,47.88
2023-05-01T16:21:11.841Z,46.88
2023-05-01T16:50:40.163Z,48.46
2023-05-01T16:51:41.238Z,47.35
2023-05-01T16:52:41.652Z,47.15
2023-05-01T16:53:40.067Z,47.01
2023-05-01T16:54:41.152Z,46.97
2023-05-01T16:55:40.086Z,46.90
2023-05-01T16:56:41.113Z,46.88
2023-05-01T16:57:41.744Z,46.84
2023-05-01T16:59:59.788Z,47.51
2023-05-01T17:01:00.830Z,47.00
2023-05-01T17:02:00.365Z,46.92
2023-05-01T17:03:00.311Z,46.87
2023-05-01T17:08:27.064Z,48.33
2023-05-01T17:09:28.048Z,47.25
2023-05-01T17:10:27.067Z,47.10
2023-05-01T17:11:30.345Z,47.02
2023-05-01T17:12:26.879Z,47.01
2023-05-01T17:13:26.871Z,46.95
2023-05-01T17:17:09.599Z,48.29
2023-05-01T17:18:10.145Z,47.25
2023-05-01T17:19:09.082Z,47.11
2023-05-01T17:20:10.142Z,47.05
2023-05-01T17:21:10.081Z,46.97
2023-05-01T17:23:28.154Z,47.06
2023-05-01T17:25:47.320Z,47.33
2023-05-01T17:43:30.848Z,48.69
2023-05-01T17:44:31.943Z,47.54
2023-05-01T17:52:29.773Z,48.69
2023-05-01T17:53:29.825Z,47.55
2023-05-01T17:55:49.004Z,47.43
2023-05-01T17:56:49.971Z,47.26
2023-05-01T17:57:49.797Z,47.15
2023-05-01T18:00:08.185Z,47.31
2023-05-01T18:01:22.832Z,47.28
2023-05-01T18:02:09.278Z,47.28
2023-05-01T18:03:09.400Z,47.15
2023-05-01T18:04:08.174Z,47.17
2023-05-01T18:06:27.279Z,47.30
2023-05-01T18:07:27.207Z,47.22
2023-05-01T18:08:27.274Z,47.21
2023-05-01T18:09:28.144Z,47.16
2023-05-01T18:10:28.178Z,47.12
2023-05-01T18:11:27.998Z,47.11
2023-05-01T18:12:26.989Z,47.13
2023-05-01T18:13:28.209Z,47.14
2023-05-01T18:14:27.959Z,47.13
2023-05-01T18:15:27.976Z,47.16
2023-05-01T18:16:28.029Z,47.10
2023-05-01T18:30:03.282Z,48.88
2023-05-01T18:43:29.827Z,49.02
2023-05-01T18:44:30.633Z,47.92
2023-05-01T18:45:29.757Z,47.74
2023-05-01T18:46:30.600Z,47.63
2023-05-01T18:48:53.964Z,48.70
2023-05-01T18:49:55.198Z,47.68
2023-05-01T18:51:07.849Z,47.59
2023-05-01T21:31:55.546Z,49.87
2023-05-01T21:34:14.317Z,48.73
2023-05-01T21:36:33.726Z,48.55
2023-05-01T21:39:12.167Z,49.52
2023-05-01T21:42:19.149Z,49.64
2023-05-01T21:44:38.496Z,48.53
2023-05-01T21:45:39.627Z,48.43
2023-05-01T21:47:57.606Z,48.39
2023-05-01T21:48:57.468Z,48.32
2023-05-01T21:51:16.817Z,48.58
2023-05-01T21:52:18.381Z,48.31
2023-05-01T21:53:17.697Z,48.22
2023-05-01T21:55:35.994Z,48.76
2023-05-01T21:57:55.124Z,48.45
2023-05-01T22:01:15.375Z,49.68
2023-05-01T22:02:16.345Z,48.53
2023-05-01T22:04:41.577Z,49.54
2023-05-01T22:07:00.193Z,48.69
2023-05-01T22:09:19.413Z,48.53
2023-05-01T22:10:20.313Z,48.35
2023-05-01T22:12:38.330Z,49.02
2023-05-01T22:14:57.636Z,48.55
2023-05-01T22:16:12.236Z,48.40
2023-05-01T22:16:58.825Z,48.43
2023-05-01T22:17:58.525Z,48.32
2023-05-01T22:18:57.445Z,48.29
2023-05-01T22:19:58.660Z,48.28
2023-05-01T22:22:16.622Z,48.89
2023-05-01T22:23:16.557Z,48.38
2023-05-01T22:24:17.599Z,48.34
2023-05-01T22:25:16.545Z,48.23
2023-05-01T22:26:17.583Z,48.26
2023-05-01T22:27:17.570Z,48.21
2023-05-01T22:28:17.872Z,48.22
2023-05-01T22:30:36.168Z,49.34
2023-05-01T22:31:36.931Z,48.44
2023-05-01T22:33:55.217Z,48.73
2023-05-01T22:36:14.206Z,48.78
2023-05-01T22:37:15.141Z,48.45
2023-05-01T22:39:33.428Z,48.53
2023-05-01T22:41:52.539Z,48.74
2023-05-01T22:44:11.773Z,48.53
2023-05-01T22:46:31.068Z,49.49
2023-05-01T22:47:32.000Z,48.54
2023-05-01T22:49:50.284Z,49.06
2023-05-01T22:51:04.383Z,48.47
2023-05-01T22:53:32.117Z,49.61
2023-05-01T22:54:33.387Z,48.66
2023-05-01T22:55:32.242Z,48.46
2023-05-01T22:57:51.344Z,48.60
2023-05-01T23:00:10.806Z,48.94
2023-05-01T23:06:08.726Z,49.01
2023-05-01T23:08:39.960Z,49.75
2023-05-01T23:11:19.328Z,49.74
2023-05-01T23:12:20.353Z,48.70
2023-05-01T23:13:20.132Z,48.52
2023-05-01T23:16:14.748Z,49.73
2023-05-01T23:20:36.387Z,49.88
2023-05-01T23:22:55.778Z,49.80
2023-05-01T23:23:55.450Z,48.75
2023-05-01T23:24:56.177Z,48.59
2023-05-01T23:27:33.341Z,49.67
2023-05-01T23:32:21.483Z,49.98
2023-05-01T23:34:40.490Z,49.79
2023-05-01T23:35:41.589Z,48.73
2023-05-01T23:37:59.624Z,49.04
2023-05-01T23:38:59.570Z,48.60
2023-05-01T23:41:18.917Z,48.66
2023-05-01T23:43:38.144Z,48.55
2023-05-01T23:49:17.989Z,49.97
2023-05-01T23:57:32.982Z,50.07
2023-05-01T23:58:48.298Z,48.92
2023-05-01T23:59:34.267Z,48.80
